Detalii statie GENERAL AGRO [00001CEA]

Toti senzorii

Date Temperatura solului [C]Precipitatii [mm]Voltaj baterie [mV]HC Air temperature [C]HC Relative humidity [%]Punctul de roua [C]
medieminmaxsumaultimamedieminmaxmediemediemin
2019-04-19 19:00:00 9.2 9.2 9.3 0 6834 9.51 8.94 9.88 0 0 0
2019-04-19 19:30:00 9.2 9.1 9.3 0 6816 8.45 8.03 8.8 0 0 0
2019-04-19 20:00:00 9 9 9.2 0 6816 7.71 7.36 8.06 0 0 0
2019-04-19 20:30:00 8.9 8.9 8.9 0 6796 6.64 6.14 7.3 0 0 0
2019-04-19 21:00:00 8.8 8.7 8.9 0 6806 5.95 5.42 6.43 0 0 0
2019-04-19 21:30:00 8.7 8.6 8.9 0 6776 5.5 5.38 5.66 0 0 0
2019-04-19 22:00:00 8.5 8.5 8.6 0 6796 6.15 5.73 6.62 0 0 0
2019-04-19 22:30:00 8.5 8.4 8.6 0 6766 6.65 6.48 6.84 0 0 0
2019-04-19 23:00:00 8.4 8.2 8.6 0 6786 6.54 6.48 6.6 0 0 0
2019-04-19 23:30:00 8.4 8.3 8.5 0 6776 6.63 6.55 6.71 0 0 0
2019-04-20 00:00:00 8.3 8.2 8.5 0 6786 6.7 6.59 6.75 0 0 0
2019-04-20 00:30:00 8.3 8.3 8.4 0 6766 6.64 6.61 6.69 0 0 0
2019-04-20 01:00:00 8.2 8.1 8.4 0 6776 6.55 6.28 6.67 0 0 0
2019-04-20 01:30:00 8.1 8.1 8.3 0 6756 5.91 5.81 6.16 0 0 0
2019-04-20 02:00:00 8.1 8 8.2 0 6766 5.83 5.77 5.91 0 0 0
2019-04-20 02:30:00 8 8 8.1 0 6756 5.57 5.35 5.82 0 0 0
2019-04-20 03:00:00 7.9 7.9 8 0 6766 5.17 4.93 5.35 0 0 0
2019-04-20 03:30:00 7.9 7.8 8 0 6766 4.5 4.23 4.74 0 0 0
2019-04-20 04:00:00 7.9 7.9 8 0 6766 3.85 3.77 4.05 0 0 0
2019-04-20 04:30:00 7.7 7.7 7.9 0 6748 3.74 3.66 3.8 0 0 0
2019-04-20 05:00:00 7.6 7.6 7.7 0 6748 3.58 3.48 3.65 0 0 0
2019-04-20 05:30:00 7.6 7.6 7.7 0 6756 3.61 3.55 3.69 0 0 0
2019-04-20 06:00:00 7.4 7.4 7.5 0 6766 3.67 3.59 3.77 0 0 0
2019-04-20 06:30:00 7.4 7.4 7.6 0 6776 4.3 3.93 4.67 0 0 0
2019-04-20 07:00:00 7.3 7.3 7.4 0 6796 5.18 4.81 5.65 0 0 0
2019-04-20 07:30:00 7.3 7.3 7.4 0 6834 6.21 5.75 6.75 0 0 0
2019-04-20 08:00:00 7.5 7.4 7.6 0 6972 7.41 6.85 8.04 0 0 0
2019-04-20 08:30:00 7.6 7.5 7.7 0 7098 8.89 8.28 9.53 0 0 0
2019-04-20 09:00:00 7.7 7.6 7.8 0 7148 9.97 9.39 10.59 0 0 0
2019-04-20 09:30:00 7.8 7.8 8 0 7148 11.14 10.2 11.7 0 0 0
2019-04-20 10:00:00 8 7.8 8.2 0 7148 12.08 11.68 12.72 0 0 0
2019-04-20 10:30:00 8.2 8.2 8.3 0 7138 13.11 12.42 13.94 0 0 0
2019-04-20 11:00:00 8.4 8.3 8.6 0 7108 13.25 12.44 14.17 0 0 0
2019-04-20 11:30:00 8.6 8.6 8.7 0 7128 14.04 13.36 15.01 8.26 -9.9 0
2019-04-20 12:00:00 8.8 8.7 8.9 0 7118 13.95 13.5 14.54 4.7 -4.4 0
2019-04-20 12:30:00 9 8.9 9.1 0 7128 14.61 13.81 15.23 0 0 0
2019-04-20 13:00:00 9.2 9.1 9.3 0 7128 14.88 14.24 15.61 0 0 0
2019-04-20 13:30:00 9.3 9.2 9.4 0 7060 14.71 13.95 15.58 0 0 0
2019-04-20 14:00:00 9.4 9.4 9.4 0 7040 14.79 14.06 15.39 0 0 0
2019-04-20 14:30:00 9.4 9.4 9.5 0 7010 14.68 14.07 15.45 0 0 0
2019-04-20 15:00:00 9.4 9.3 9.5 0 7000 14.91 14.2 15.62 0 0 0
2019-04-20 15:30:00 9.6 9.5 9.9 0 6992 15.75 15.3 16.26 0 0 0
2019-04-20 16:00:00 9.7 9.7 9.8 0 6982 15.48 15.11 16.1 0 0 0
2019-04-20 16:30:00 9.7 9.7 9.8 0 6942 15.09 14.51 15.71 0 0 0
2019-04-20 17:00:00 9.7 9.7 9.8 0 6942 15.25 14.78 16.07 0 0 0
2019-04-20 17:30:00 9.7 9.7 9.8 0 6914 14.87 14.75 15.03 0 0 0
2019-04-20 18:00:00 9.7 9.7 9.8 0 6894 13.83 13.5 14.42 0 0 0
2019-04-20 18:30:00 9.6 9.6 9.7 0 6864 13.19 12.83 13.53 0 0 0